Time;durP1;ratioP1;P1;durP2;ratioP2;P2;SDS_P1;SDS_P2;PMS_P1;PMS_P2;Temp;Humidity;BMP_temperature;BMP_pressure;BME280_temperature;BME280_humidity;BME280_pressure;Samples;Min_cycle;Max_cycle;Signal;HPM_P1;HPM_P2
2022/03/02 00:01:42;;;;;;;40.00;25.88;;;5.90;80.80;;;;;;5097222;28;20070;-65
2022/03/02 00:04:08;;;;;;;39.38;26.15;;;5.90;80.90;;;;;;5103132;28;20496;-65
2022/03/02 00:06:34;;;;;;;37.83;26.38;;;5.90;80.90;;;;;;5114094;28;20053;-65
2022/03/02 00:09:01;;;;;;;38.83;27.13;;;5.80;80.90;;;;;;5115245;28;20051;-64
2022/03/02 00:11:27;;;;;;;37.63;26.70;;;5.90;81.00;;;;;;5096476;28;20043;-66
2022/03/02 00:13:54;;;;;;;37.13;26.75;;;5.80;81.20;;;;;;5114602;28;20056;-65
2022/03/02 00:16:22;;;;;;;41.58;28.15;;;5.80;81.10;;;;;;5115941;28;20108;-64
2022/03/02 00:18:48;;;;;;;35.90;26.35;;;5.80;81.20;;;;;;5135069;28;20046;-65
2022/03/02 00:21:14;;;;;;;35.45;26.67;;;5.80;81.20;;;;;;5130264;28;20039;-65
2022/03/02 00:23:40;;;;;;;44.92;27.50;;;5.80;81.10;;;;;;5126420;28;20399;-65
2022/03/02 00:26:06;;;;;;;38.88;28.27;;;5.80;81.10;;;;;;5133695;28;20142;-65
2022/03/02 00:28:32;;;;;;;44.22;26.63;;;5.80;81.20;;;;;;5133848;28;20039;-65
2022/03/02 00:30:58;;;;;;;38.22;26.23;;;5.80;81.30;;;;;;5123767;28;20040;-65
2022/03/02 00:33:23;;;;;;;41.63;27.55;;;5.80;81.30;;;;;;5127335;28;20035;-65
2022/03/02 00:35:49;;;;;;;39.28;28.08;;;5.70;81.30;;;;;;5135877;28;20152;-65
2022/03/02 00:38:15;;;;;;;42.22;27.35;;;5.70;81.40;;;;;;5136117;28;20089;-65
2022/03/02 00:40:41;;;;;;;42.67;28.13;;;5.80;81.50;;;;;;5116074;28;20040;-65
2022/03/02 00:43:08;;;;;;;39.15;27.17;;;5.80;81.50;;;;;;5096232;28;20580;-65
2022/03/02 00:45:34;;;;;;;36.45;27.48;;;5.80;81.60;;;;;;5116634;28;20046;-65
2022/03/02 00:48:01;;;;;;;44.72;29.77;;;5.80;81.70;;;;;;5109127;28;20388;-65
2022/03/02 00:50:27;;;;;;;41.25;29.02;;;5.80;81.60;;;;;;5116996;28;20143;-65
2022/03/02 00:52:54;;;;;;;38.13;26.60;;;5.80;81.70;;;;;;5117287;28;20133;-65
2022/03/02 00:55:20;;;;;;;41.53;28.05;;;5.90;81.80;;;;;;5104349;28;20039;-65
2022/03/02 00:57:46;;;;;;;39.38;27.05;;;5.90;81.90;;;;;;5130407;27;20213;-65
2022/03/02 01:00:12;;;;;;;38.90;26.70;;;5.90;81.80;;;;;;5130232;27;20523;-65
2022/03/02 01:02:38;;;;;;;39.72;28.20;;;6.00;81.80;;;;;;5116744;28;20043;-65
2022/03/02 01:05:05;;;;;;;41.08;26.92;;;6.00;81.80;;;;;;5119471;28;20106;-65
2022/03/02 01:07:31;;;;;;;41.80;27.95;;;6.00;81.70;;;;;;5100001;28;20050;-65
2022/03/02 01:09:58;;;;;;;38.70;27.88;;;6.00;81.50;;;;;;5121777;27;20138;-65
2022/03/02 01:12:23;;;;;;;43.50;29.40;;;5.90;81.50;;;;;;5125446;27;20035;-65
2022/03/02 01:14:50;;;;;;;39.95;27.45;;;5.90;81.50;;;;;;5123905;27;20052;-65
2022/03/02 01:17:17;;;;;;;45.55;29.98;;;5.90;81.50;;;;;;5110446;27;20040;-64
2022/03/02 01:19:43;;;;;;;38.30;26.95;;;5.80;81.60;;;;;;5132503;27;20042;-65
2022/03/02 01:22:08;;;;;;;44.15;27.77;;;5.70;81.60;;;;;;5128208;27;20039;-65
2022/03/02 01:24:34;;;;;;;38.75;28.77;;;5.70;81.70;;;;;;5128970;27;20050;-64
2022/03/02 01:27:02;;;;;;;39.85;27.90;;;5.80;81.80;;;;;;5140634;27;20395;-65
2022/03/02 01:29:30;;;;;;;39.83;28.60;;;5.70;81.70;;;;;;5138596;27;20031;-65
2022/03/02 01:31:57;;;;;;;38.95;28.10;;;5.70;82.20;;;;;;5120374;27;20050;-65
2022/03/02 01:34:23;;;;;;;43.38;29.17;;;5.60;82.30;;;;;;5138453;27;20047;-65
2022/03/02 01:36:59;;;;;;;38.85;27.80;;;5.60;82.10;;;;;;5138528;27;20080;-64
2022/03/02 01:39:25;;;;;;;38.60;27.90;;;5.60;82.40;;;;;;5137980;27;20051;-64
2022/03/02 01:41:51;;;;;;;41.75;29.27;;;5.60;82.40;;;;;;5137445;27;20027;-65
2022/03/02 01:44:17;;;;;;;38.72;27.30;;;5.60;82.30;;;;;;5138326;27;20702;-63
2022/03/02 01:46:43;;;;;;;43.72;28.85;;;5.60;82.40;;;;;;5120359;27;20055;-65
2022/03/02 01:49:09;;;;;;;42.28;28.10;;;5.50;82.40;;;;;;5138422;27;20042;-62
2022/03/02 01:51:35;;;;;;;38.67;28.50;;;5.60;82.40;;;;;;5140271;27;20564;-65
2022/03/02 01:54:02;;;;;;;37.35;27.55;;;5.60;82.30;;;;;;5138719;27;20062;-64
2022/03/02 01:56:28;;;;;;;43.22;27.92;;;5.60;82.40;;;;;;5120056;27;20062;-64
2022/03/02 01:58:53;;;;;;;44.70;29.42;;;5.60;82.40;;;;;;5121251;27;20047;-64
2022/03/02 02:01:19;;;;;;;41.67;29.08;;;5.60;82.40;;;;;;5140199;27;20039;-65
2022/03/02 02:03:45;;;;;;;44.33;28.98;;;5.60;82.20;;;;;;5122604;27;20044;-64
2022/03/02 02:06:13;;;;;;;44.33;29.48;;;5.60;82.30;;;;;;5118029;28;20047;-64
2022/03/02 02:08:39;;;;;;;44.90;29.27;;;5.60;82.40;;;;;;5085050;28;20043;-64
2022/03/02 02:11:05;;;;;;;44.20;30.30;;;5.50;82.30;;;;;;5117391;28;20044;-64
2022/03/02 02:13:33;;;;;;;43.67;29.33;;;5.60;82.50;;;;;;5099034;28;20048;-65
2022/03/02 02:15:59;;;;;;;45.58;28.95;;;5.50;82.60;;;;;;5117755;28;20112;-65
2022/03/02 02:18:26;;;;;;;51.75;29.35;;;5.60;82.60;;;;;;5120962;27;20027;-64
2022/03/02 02:20:51;;;;;;;43.53;30.65;;;5.50;82.60;;;;;;5137075;27;20506;-65
2022/03/02 02:23:17;;;;;;;44.60;30.00;;;5.50;82.50;;;;;;5140443;27;20043;-64
2022/03/02 02:25:43;;;;;;;39.95;29.02;;;5.50;82.50;;;;;;5140063;27;20047;-64
2022/03/02 02:28:10;;;;;;;39.10;27.13;;;5.50;82.60;;;;;;5137102;27;20074;-64
2022/03/02 02:30:37;;;;;;;41.50;28.65;;;5.50;82.50;;;;;;5137798;27;20404;-65
2022/03/02 02:33:03;;;;;;;43.65;29.20;;;5.50;82.50;;;;;;5137853;27;20051;-65
2022/03/02 02:35:29;;;;;;;43.95;28.13;;;5.50;82.40;;;;;;5137816;27;20488;-64
2022/03/02 02:37:57;;;;;;;45.03;28.15;;;5.50;82.50;;;;;;5137136;27;20594;-64
2022/03/02 02:40:22;;;;;;;46.58;29.33;;;5.50;82.40;;;;;;5138284;27;20130;-64
2022/03/02 02:42:49;;;;;;;40.22;27.65;;;5.50;82.40;;;;;;5119659;27;20575;-65
2022/03/02 02:45:20;;;;;;;44.55;29.52;;;5.50;82.50;;;;;;5130026;27;20047;-65
2022/03/02 02:47:50;;;;;;;44.30;29.13;;;5.50;82.40;;;;;;5099393;28;20052;-65
2022/03/02 02:50:30;;;;;;;41.05;28.55;;;5.50;82.20;;;;;;5117372;28;20063;-65
2022/03/02 02:53:09;;;;;;;44.78;29.52;;;5.50;82.30;;;;;;5112213;28;20055;-65
2022/03/02 02:55:42;;;;;;;43.63;29.48;;;5.50;82.20;;;;;;5117544;28;20100;-65
2022/03/02 02:58:12;;;;;;;39.40;27.30;;;5.50;82.20;;;;;;5099079;28;20433;-64
2022/03/02 03:00:42;;;;;;;41.33;28.23;;;5.40;82.10;;;;;;5115419;28;20063;-65
2022/03/02 03:03:08;;;;;;;43.88;29.35;;;5.40;82.10;;;;;;5110602;28;20087;-64
2022/03/02 03:05:37;;;;;;;46.10;29.23;;;5.40;82.10;;;;;;5117460;28;20074;-64
2022/03/02 03:08:12;;;;;;;42.10;28.45;;;5.40;82.00;;;;;;5115973;28;20079;-65
2022/03/02 03:10:39;;;;;;;41.95;28.05;;;5.40;82.00;;;;;;5099367;28;20511;-65
2022/03/02 03:13:07;;;;;;;43.85;30.23;;;5.40;82.00;;;;;;5116426;28;20075;-65
2022/03/02 03:15:34;;;;;;;43.88;28.65;;;5.40;81.90;;;;;;5116036;28;20118;-65
2022/03/02 03:18:02;;;;;;;40.97;27.17;;;5.40;81.90;;;;;;5133197;27;20039;-64
2022/03/02 03:20:29;;;;;;;43.42;28.20;;;5.40;81.60;;;;;;5118473;27;20407;-65
2022/03/02 03:22:56;;;;;;;43.75;28.13;;;5.40;81.60;;;;;;5101855;27;20503;-65
2022/03/02 03:25:27;;;;;;;39.97;27.13;;;5.40;81.50;;;;;;5115511;27;20626;-62
2022/03/02 03:28:04;;;;;;;43.03;28.35;;;5.40;81.40;;;;;;5134271;27;20050;-64
2022/03/02 03:30:30;;;;;;;43.08;29.17;;;5.30;81.10;;;;;;5135188;27;20062;-64
2022/03/02 03:32:56;;;;;;;42.88;28.48;;;5.30;81.20;;;;;;5118772;27;20396;-65
2022/03/02 03:35:24;;;;;;;47.35;28.98;;;5.30;81.10;;;;;;5117807;27;20051;-65
2022/03/02 03:37:56;;;;;;;44.63;28.30;;;5.30;81.10;;;;;;5111211;28;20048;-65
2022/03/02 03:40:24;;;;;;;49.72;29.38;;;5.30;81.20;;;;;;5116188;28;20044;-65
2022/03/02 03:42:54;;;;;;;44.85;28.58;;;5.30;81.20;;;;;;5114729;28;20090;-65
2022/03/02 03:45:24;;;;;;;45.47;29.75;;;5.20;81.10;;;;;;5116018;28;20043;-65
2022/03/02 03:47:53;;;;;;;51.20;32.03;;;5.10;81.20;;;;;;5115529;28;20418;-63
2022/03/02 03:50:19;;;;;;;46.97;27.15;;;5.20;81.30;;;;;;5114842;28;20081;-65
2022/03/02 03:52:48;;;;;;;43.92;28.65;;;5.10;81.30;;;;;;5115784;28;20047;-64
2022/03/02 03:55:15;;;;;;;51.60;28.73;;;5.10;81.40;;;;;;5112910;28;20055;-62
2022/03/02 03:57:42;;;;;;;46.60;29.33;;;5.10;81.40;;;;;;5084858;28;20504;-65
2022/03/02 04:00:15;;;;;;;45.10;28.73;;;5.10;81.50;;;;;;5096445;28;20044;-65
2022/03/02 04:02:43;;;;;;;45.67;29.55;;;5.20;81.50;;;;;;5115104;28;20050;-64
2022/03/02 04:05:10;;;;;;;51.00;31.45;;;5.10;81.50;;;;;;5092131;28;20060;-65
2022/03/02 04:07:39;;;;;;;51.38;31.23;;;5.10;81.50;;;;;;5109715;28;20059;-65
2022/03/02 04:10:13;;;;;;;49.25;29.30;;;5.00;81.50;;;;;;5091554;28;20039;-65
2022/03/02 04:12:47;;;;;;;45.50;29.40;;;5.00;81.50;;;;;;5109069;28;20082;-65
2022/03/02 04:15:13;;;;;;;50.40;30.08;;;4.90;81.50;;;;;;5109806;28;20063;-65
2022/03/02 04:17:42;;;;;;;46.28;30.13;;;4.90;81.50;;;;;;5128989;28;20059;-65
2022/03/02 04:20:14;;;;;;;50.28;31.27;;;4.80;81.60;;;;;;5129655;27;20058;-65
2022/03/02 04:22:40;;;;;;;54.70;32.25;;;4.70;81.60;;;;;;5133286;27;20051;-65
2022/03/02 04:25:07;;;;;;;48.03;31.63;;;4.60;81.80;;;;;;5134303;27;20046;-65
2022/03/02 04:27:38;;;;;;;52.65;33.70;;;4.60;81.90;;;;;;5134244;27;20050;-65
2022/03/02 04:30:06;;;;;;;54.33;32.90;;;4.50;81.90;;;;;;5133624;27;20043;-65
2022/03/02 04:32:33;;;;;;;51.50;32.85;;;4.50;82.10;;;;;;5134158;27;20130;-65
2022/03/02 04:34:59;;;;;;;53.95;32.72;;;4.40;82.10;;;;;;5134367;27;20411;-65
2022/03/02 04:37:31;;;;;;;52.63;32.38;;;4.30;82.20;;;;;;5133515;27;20551;-65
2022/03/02 04:39:57;;;;;;;51.67;33.55;;;4.30;82.40;;;;;;5133733;27;20058;-65
2022/03/02 04:42:22;;;;;;;50.97;32.63;;;4.30;82.60;;;;;;5133978;27;20039;-65
2022/03/02 04:44:48;;;;;;;56.28;33.88;;;4.30;82.60;;;;;;5134076;27;20043;-65
2022/03/02 04:47:14;;;;;;;55.28;33.47;;;4.20;82.70;;;;;;5101748;28;20055;-65
2022/03/02 04:49:40;;;;;;;54.90;33.17;;;4.20;82.70;;;;;;5095385;28;20051;-65
2022/03/02 04:52:07;;;;;;;52.53;31.73;;;4.20;82.80;;;;;;5113358;28;20047;-65
2022/03/02 04:57:17;;;;;;;51.92;31.90;;;4.10;83.20;;;;;;5113021;28;20116;-65
2022/03/02 04:59:45;;;;;;;51.67;31.63;;;4.10;83.10;;;;;;5093654;28;20511;-65
2022/03/02 05:02:18;;;;;;;54.22;33.47;;;4.00;83.30;;;;;;5115721;27;20193;-65
2022/03/02 05:04:49;;;;;;;58.55;33.95;;;4.00;83.30;;;;;;5131137;27;20408;-65
2022/03/02 05:07:18;;;;;;;51.92;34.35;;;3.90;83.40;;;;;;5133109;27;20128;-65
2022/03/02 05:09:45;;;;;;;55.28;34.83;;;3.90;83.70;;;;;;5098334;27;20130;-65
2022/03/02 05:12:14;;;;;;;54.97;33.15;;;3.80;83.60;;;;;;5133240;27;20076;-65
2022/03/02 05:14:40;;;;;;;59.83;34.80;;;3.90;83.70;;;;;;5132312;27;20116;-65
2022/03/02 05:17:07;;;;;;;57.22;33.60;;;3.80;83.80;;;;;;5120096;27;20048;-65
2022/03/02 05:19:34;;;;;;;58.70;34.35;;;3.80;83.90;;;;;;5114857;27;20071;-65
2022/03/02 05:22:02;;;;;;;52.22;33.05;;;3.80;83.80;;;;;;5132666;27;20099;-65
2022/03/02 05:24:49;;;;;;;53.20;32.55;;;3.70;83.80;;;;;;5115024;27;20642;-65
2022/03/02 05:27:14;;;;;;;53.30;33.05;;;3.80;83.80;;;;;;5113888;27;20169;-65
2022/03/02 05:29:40;;;;;;;60.25;34.13;;;3.80;83.90;;;;;;5114589;27;20500;-64
2022/03/02 05:32:12;;;;;;;55.90;32.97;;;3.80;84.00;;;;;;5111890;28;20071;-65
2022/03/02 05:34:38;;;;;;;54.78;34.05;;;3.70;84.10;;;;;;5090532;28;20154;-66
2022/03/02 05:37:05;;;;;;;60.15;35.47;;;3.70;84.00;;;;;;5128561;27;20546;-66
2022/03/02 05:39:31;;;;;;;54.97;33.72;;;3.70;84.00;;;;;;5132922;27;20092;-65
2022/03/02 05:41:59;;;;;;;55.10;32.75;;;3.70;84.10;;;;;;5132718;27;20047;-66
2022/03/02 05:44:25;;;;;;;51.05;32.20;;;3.70;84.10;;;;;;5126427;27;20082;-66
2022/03/02 05:46:52;;;;;;;55.08;34.78;;;3.70;84.20;;;;;;5097760;28;20058;-66
2022/03/02 05:49:21;;;;;;;57.30;33.85;;;3.70;84.20;;;;;;5100331;27;20043;-66
2022/03/02 05:51:49;;;;;;;58.97;36.20;;;3.70;84.30;;;;;;5101020;27;20511;-66
2022/03/02 05:54:19;;;;;;;50.40;32.08;;;3.70;84.30;;;;;;5122996;27;20393;-66
2022/03/02 07:54:16;;;;;;;44.95;28.90;;;3.80;84.00;;;;;;4942024;29;20412;-64
2022/03/02 07:56:44;;;;;;;45.05;28.20;;;3.70;84.10;;;;;;4947674;28;20051;-64
2022/03/02 07:59:09;;;;;;;42.80;28.83;;;3.80;84.00;;;;;;4948802;29;20118;-66
2022/03/02 08:01:37;;;;;;;45.95;29.23;;;3.80;83.90;;;;;;4943823;29;20488;-66
2022/03/02 08:04:08;;;;;;;46.83;30.30;;;3.90;83.90;;;;;;4949984;29;20406;-65
2022/03/02 08:06:39;;;;;;;51.78;31.50;;;5.50;90.40;;;;;;4929832;29;20418;-67
2022/03/02 08:09:06;;;;;;;45.00;29.08;;;5.30;87.60;;;;;;4931363;29;20044;-67
2022/03/02 08:11:33;;;;;;;41.17;28.38;;;5.20;86.10;;;;;;4931113;29;20107;-66
2022/03/02 08:14:00;;;;;;;51.92;28.80;;;5.10;84.90;;;;;;4930786;29;20099;-67
2022/03/02 08:16:29;;;;;;;43.95;29.40;;;5.00;83.80;;;;;;4930777;29;20046;-66
2022/03/02 08:18:56;;;;;;;49.47;28.73;;;4.90;83.40;;;;;;4931242;29;20146;-66
2022/03/02 08:21:26;;;;;;;44.97;28.42;;;4.80;83.00;;;;;;4929202;29;20047;-66
2022/03/02 08:23:54;;;;;;;46.55;29.20;;;4.80;82.80;;;;;;4930023;29;20420;-67
2022/03/02 08:26:22;;;;;;;46.70;28.13;;;4.80;82.60;;;;;;4930493;29;20055;-66
2022/03/02 08:28:54;;;;;;;48.63;28.90;;;4.70;82.50;;;;;;4930416;29;20048;-67
2022/03/02 08:31:21;;;;;;;44.45;27.83;;;4.70;82.40;;;;;;4911959;29;20040;-67
2022/03/02 08:33:48;;;;;;;42.75;28.70;;;4.70;82.50;;;;;;4913131;29;20054;-67
2022/03/02 08:36:16;;;;;;;47.20;29.95;;;4.90;82.70;;;;;;4929760;29;20044;-66
2022/03/02 08:38:44;;;;;;;42.78;28.75;;;5.00;82.10;;;;;;4930483;29;20389;-68
2022/03/02 08:41:10;;;;;;;45.58;28.60;;;5.00;81.70;;;;;;4913670;29;20427;-68
2022/03/02 08:43:36;;;;;;;44.60;28.48;;;4.90;81.70;;;;;;4929788;29;20047;-66
2022/03/02 08:46:04;;;;;;;44.25;28.42;;;4.90;81.70;;;;;;4928902;29;20130;-67
2022/03/02 08:48:30;;;;;;;43.88;28.90;;;4.90;81.60;;;;;;4928462;29;20055;-66
2022/03/02 08:50:59;;;;;;;45.70;28.85;;;4.90;81.60;;;;;;4930084;29;20058;-67
2022/03/02 08:53:26;;;;;;;51.08;31.55;;;4.90;81.60;;;;;;4917792;29;20055;-67
2022/03/02 08:55:53;;;;;;;46.13;28.40;;;5.00;81.70;;;;;;4910376;29;20052;-68
2022/03/02 08:58:19;;;;;;;41.65;26.45;;;5.10;81.60;;;;;;4912823;29;20092;-67
2022/03/02 09:00:46;;;;;;;45.75;29.15;;;5.20;81.40;;;;;;4919995;29;20062;-67
2022/03/02 09:03:15;;;;;;;47.63;28.08;;;5.20;81.30;;;;;;4927635;29;20044;-67
2022/03/02 09:05:42;;;;;;;45.70;29.42;;;5.20;80.90;;;;;;4896184;29;20053;-67
2022/03/02 09:08:10;;;;;;;44.05;27.13;;;5.20;80.70;;;;;;4931952;29;20420;-68
2022/03/02 09:10:36;;;;;;;38.60;26.58;;;5.20;80.80;;;;;;4933744;29;20040;-68
2022/03/02 09:13:02;;;;;;;45.08;28.65;;;5.20;80.70;;;;;;4926844;29;20492;-67
2022/03/02 09:15:28;;;;;;;48.40;27.92;;;5.30;80.70;;;;;;4926262;29;20059;-67
2022/03/02 09:17:57;;;;;;;43.25;27.20;;;5.30;80.50;;;;;;4906944;29;20044;-67
2022/03/02 09:20:23;;;;;;;40.58;26.60;;;5.30;80.30;;;;;;4928318;29;20048;-67
2022/03/02 09:22:50;;;;;;;42.58;27.23;;;5.40;80.30;;;;;;4918731;29;20052;-67
2022/03/02 09:25:15;;;;;;;45.10;27.02;;;5.50;80.50;;;;;;4910662;29;20052;-66
2022/03/02 09:27:42;;;;;;;42.17;27.52;;;5.50;80.20;;;;;;4922530;29;20044;-67
2022/03/02 09:30:09;;;;;;;39.78;25.65;;;5.60;79.80;;;;;;4932423;29;20072;-66
2022/03/02 09:32:40;;;;;;;41.30;26.48;;;5.60;79.70;;;;;;4906425;29;20404;-67
2022/03/02 09:35:08;;;;;;;46.20;26.90;;;5.60;79.90;;;;;;4930745;29;20110;-67
2022/03/02 09:37:35;;;;;;;43.42;25.77;;;5.70;79.70;;;;;;4924861;29;20051;-67
2022/03/02 09:40:02;;;;;;;45.33;26.70;;;5.70;79.70;;;;;;4932193;29;20062;-66
2022/03/02 09:42:40;;;;;;;42.03;27.25;;;5.80;79.60;;;;;;4927518;29;20488;-67
2022/03/02 09:45:08;;;;;;;48.75;29.08;;;5.90;78.80;;;;;;4915367;29;20131;-66
2022/03/02 09:47:46;;;;;;;41.05;26.85;;;5.90;79.00;;;;;;4903132;29;20408;-67
2022/03/02 09:50:14;;;;;;;52.13;26.50;;;6.00;79.00;;;;;;4933216;29;20526;-67
2022/03/02 09:52:42;;;;;;;43.10;27.98;;;6.00;78.40;;;;;;4929518;29;20512;-66
2022/03/02 09:55:13;;;;;;;43.53;27.35;;;6.10;78.50;;;;;;4929248;29;20420;-67
2022/03/02 09:57:47;;;;;;;40.40;25.25;;;6.10;78.40;;;;;;4934078;29;20087;-68
2022/03/02 10:00:16;;;;;;;44.10;27.38;;;6.20;78.40;;;;;;4909768;29;20138;-67
2022/03/02 10:02:44;;;;;;;45.75;28.13;;;6.30;78.40;;;;;;4933695;29;20048;-67
2022/03/02 10:05:12;;;;;;;43.78;27.60;;;6.30;77.80;;;;;;4916702;29;20052;-67
2022/03/02 10:07:41;;;;;;;44.28;25.70;;;6.30;77.70;;;;;;4917558;29;20058;-67
2022/03/02 10:10:12;;;;;;;40.70;26.60;;;6.40;77.40;;;;;;4932242;29;20048;-68
2022/03/02 10:12:39;;;;;;;47.33;26.60;;;6.50;77.70;;;;;;4925457;29;20147;-67
2022/03/02 10:15:09;;;;;;;41.38;26.42;;;6.50;77.30;;;;;;4933519;29;20420;-67
2022/03/02 10:17:38;;;;;;;41.83;26.75;;;6.60;77.50;;;;;;4933072;29;20048;-68
2022/03/02 10:20:07;;;;;;;44.58;26.95;;;6.60;77.40;;;;;;4932747;29;20416;-66
2022/03/02 10:23:10;;;;;;;39.30;26.80;;;6.60;76.90;;;;;;4933918;29;20047;-67
2022/03/02 10:25:51;;;;;;;38.72;24.30;;;6.70;76.90;;;;;;4933117;29;20123;-67
2022/03/02 10:28:28;;;;;;;43.08;25.33;;;6.70;76.30;;;;;;4916654;29;20398;-68
2022/03/02 10:31:31;;;;;;;43.42;26.63;;;6.70;75.80;;;;;;4926246;29;20052;-67
2022/03/02 10:34:16;;;;;;;38.72;24.60;;;6.80;75.60;;;;;;4914705;29;20098;-68
2022/03/02 10:36:45;;;;;;;43.88;26.65;;;6.80;75.80;;;;;;4913805;29;20464;-69
2022/03/02 10:39:35;;;;;;;41.08;26.58;;;6.90;75.90;;;;;;4897726;29;20150;-69
2022/03/02 10:42:05;;;;;;;37.17;26.40;;;6.90;75.70;;;;;;4932238;29;20044;-69
2022/03/02 10:45:08;;;;;;;40.33;25.55;;;6.90;75.50;;;;;;4932561;29;20058;-68
2022/03/02 10:47:41;;;;;;;41.70;25.50;;;7.10;75.60;;;;;;4932965;29;20599;-68
2022/03/02 10:50:07;;;;;;;41.00;25.08;;;7.10;75.60;;;;;;4931584;29;20040;-66
2022/03/02 10:52:37;;;;;;;41.60;25.30;;;7.20;75.00;;;;;;4932257;29;20270;-67
2022/03/02 10:55:07;;;;;;;39.97;26.15;;;7.20;74.60;;;;;;4932422;29;20051;-66
2022/03/02 10:57:33;;;;;;;36.25;24.83;;;7.90;79.10;;;;;;4932062;29;20051;-65
2022/03/02 11:00:13;;;;;;;35.42;24.30;;;8.00;76.00;;;;;;4932273;29;20134;-68
2022/03/02 11:02:45;;;;;;;37.03;23.92;;;8.00;73.00;;;;;;4913476;29;20119;-67
2022/03/02 11:05:16;;;;;;;40.13;24.02;;;7.90;73.30;;;;;;4931703;29;20039;-66
2022/03/02 11:07:42;;;;;;;42.43;24.57;;;7.80;73.60;;;;;;4920611;29;20048;-66
2022/03/02 11:10:13;;;;;;;34.35;22.92;;;7.80;72.50;;;;;;4932066;29;20071;-66
2022/03/02 11:12:44;;;;;;;37.50;24.13;;;7.70;71.80;;;;;;4922198;29;20040;-66
2022/03/02 11:15:11;;;;;;;40.65;23.33;;;8.10;75.40;;;;;;4925920;29;20074;-66
2022/03/02 11:17:57;;;;;;;35.75;23.73;;;8.00;72.10;;;;;;4900682;29;20418;-66
2022/03/02 11:20:24;;;;;;;34.60;23.30;;;8.00;71.90;;;;;;4905314;29;20039;-66
2022/03/02 11:22:59;;;;;;;34.60;22.63;;;8.00;71.60;;;;;;4927453;29;20088;-66
2022/03/02 11:25:52;;;;;;;40.10;23.67;;;7.90;72.20;;;;;;4899448;29;20080;-66
2022/03/02 11:28:24;;;;;;;35.50;23.45;;;8.00;71.60;;;;;;4914672;29;20036;-66
2022/03/02 11:31:00;;;;;;;36.00;23.90;;;8.00;71.40;;;;;;4924424;29;20138;-66
2022/03/02 11:33:28;;;;;;;33.15;22.23;;;8.00;71.20;;;;;;4927098;29;20056;-66
2022/03/02 11:36:00;;;;;;;36.60;22.10;;;8.00;71.10;;;;;;4929355;29;20592;-66
2022/03/02 11:38:31;;;;;;;35.75;24.23;;;8.10;70.70;;;;;;4930536;29;20055;-66
2022/03/02 11:40:57;;;;;;;39.65;24.00;;;8.10;70.10;;;;;;4907736;29;20541;-66
2022/03/02 11:43:28;;;;;;;41.55;23.08;;;8.00;70.30;;;;;;4930907;29;20051;-66
2022/03/02 11:45:59;;;;;;;35.00;22.73;;;8.10;70.70;;;;;;4921050;29;20315;-66
2022/03/02 11:48:40;;;;;;;36.17;20.92;;;8.20;70.60;;;;;;4913124;29;20048;-69
2022/03/02 11:51:13;;;;;;;43.13;21.53;;;8.20;70.10;;;;;;4917853;29;20044;-67
2022/03/02 11:53:50;;;;;;;35.45;22.92;;;8.40;71.70;;;;;;4912482;29;20063;-67
2022/03/02 11:56:18;;;;;;;34.10;22.10;;;8.50;70.60;;;;;;4917839;29;20059;-68
2022/03/02 11:59:01;;;;;;;37.78;22.77;;;8.50;70.00;;;;;;4926452;29;20048;-67
2022/03/02 12:01:40;;;;;;;31.92;21.17;;;8.60;70.20;;;;;;4926181;29;20052;-67
2022/03/02 12:04:07;;;;;;;36.03;22.65;;;8.50;70.00;;;;;;4902587;29;20458;-66
2022/03/02 12:06:50;;;;;;;33.75;20.20;;;8.60;70.00;;;;;;4925040;29;20054;-64
2022/03/02 12:09:34;;;;;;;38.50;23.17;;;8.60;69.10;;;;;;4929131;29;20127;-64
2022/03/02 12:12:12;;;;;;;34.58;21.85;;;8.60;68.90;;;;;;4924220;29;20048;-63
2022/03/02 12:14:48;;;;;;;39.05;22.75;;;8.70;69.00;;;;;;4922655;29;20056;-64
2022/03/02 12:17:25;;;;;;;37.58;22.02;;;8.70;68.80;;;;;;4910885;29;20531;-64
2022/03/02 12:19:53;;;;;;;31.27;21.42;;;8.70;68.60;;;;;;4912130;29;20044;-64
2022/03/02 12:22:21;;;;;;;30.83;20.92;;;8.80;68.60;;;;;;4912177;29;20076;-64
2022/03/02 12:24:48;;;;;;;33.40;22.20;;;8.90;68.40;;;;;;4925548;29;20047;-64
2022/03/02 12:27:15;;;;;;;40.63;23.63;;;9.00;68.30;;;;;;4930587;29;20043;-64
2022/03/02 12:29:42;;;;;;;35.47;21.23;;;9.00;68.40;;;;;;4931169;29;20040;-65
2022/03/02 12:32:15;;;;;;;33.53;20.65;;;9.10;68.10;;;;;;4924950;29;20044;-64
2022/03/02 12:34:44;;;;;;;33.10;21.52;;;9.10;67.70;;;;;;4931690;29;20036;-64
2022/03/02 12:37:12;;;;;;;32.35;21.65;;;9.20;67.60;;;;;;4915449;29;20135;-64
2022/03/02 12:39:38;;;;;;;30.30;20.60;;;9.20;67.20;;;;;;4931580;29;20051;-64
2022/03/02 12:42:08;;;;;;;33.00;21.85;;;9.30;67.00;;;;;;4930719;29;20047;-65
2022/03/02 12:44:38;;;;;;;34.33;21.42;;;9.30;67.10;;;;;;4926739;29;20054;-64
2022/03/02 12:47:08;;;;;;;32.80;21.40;;;9.40;66.60;;;;;;4931316;29;20123;-65
2022/03/02 12:49:37;;;;;;;35.15;20.95;;;9.50;66.60;;;;;;4934393;29;20048;-65
2022/03/02 12:52:03;;;;;;;30.73;20.95;;;9.60;66.60;;;;;;4931417;29;20675;-63
2022/03/02 12:54:31;;;;;;;34.05;21.15;;;9.60;66.50;;;;;;4917477;29;20168;-63
2022/03/02 12:56:57;;;;;;;30.38;20.30;;;9.60;66.00;;;;;;4934732;29;20103;-62
2022/03/02 12:59:23;;;;;;;33.85;20.52;;;9.60;65.20;;;;;;4934024;29;20052;-63
2022/03/02 13:01:49;;;;;;;28.88;19.40;;;9.70;65.10;;;;;;4935027;29;20111;-63
2022/03/02 13:04:24;;;;;;;32.72;20.25;;;9.80;65.30;;;;;;4934776;29;20083;-63
2022/03/02 13:06:56;;;;;;;30.08;21.05;;;9.80;64.80;;;;;;4917423;29;20059;-64
2022/03/02 13:09:25;;;;;;;33.40;21.20;;;9.90;64.70;;;;;;4934524;29;20054;-64
2022/03/02 13:11:51;;;;;;;37.22;21.67;;;9.90;64.60;;;;;;4935494;29;20518;-63
2022/03/02 13:14:34;;;;;;;29.05;19.25;;;9.90;64.40;;;;;;4932022;29;20044;-64
2022/03/02 13:17:18;;;;;;;37.28;21.23;;;10.00;64.10;;;;;;4916928;29;20053;-63
2022/03/02 13:19:49;;;;;;;28.67;19.80;;;10.10;63.90;;;;;;4929571;29;20410;-65
2022/03/02 13:22:24;;;;;;;31.23;19.08;;;10.10;63.60;;;;;;4934080;29;20158;-64
2022/03/02 13:24:54;;;;;;;29.52;19.33;;;10.00;62.80;;;;;;4934771;29;20518;-63
2022/03/02 13:27:21;;;;;;;33.50;20.08;;;10.00;62.90;;;;;;4933836;29;20139;-63
2022/03/02 13:30:08;;;;;;;30.98;19.25;;;10.00;63.00;;;;;;4934731;29;20129;-63
2022/03/02 13:32:58;;;;;;;30.63;18.23;;;10.10;62.30;;;;;;4926258;29;20048;-63
2022/03/02 13:35:26;;;;;;;31.52;20.33;;;10.10;62.40;;;;;;4924817;29;20098;-65
2022/03/02 13:38:09;;;;;;;27.05;18.55;;;10.10;62.90;;;;;;4928955;29;20048;-65
2022/03/02 13:40:43;;;;;;;40.17;19.77;;;10.20;62.50;;;;;;4929687;29;20051;-64
2022/03/02 13:43:28;;;;;;;27.90;19.38;;;10.20;62.60;;;;;;4928434;29;20092;-64
2022/03/02 13:46:17;;;;;;;29.48;18.30;;;10.30;61.60;;;;;;4933907;29;20051;-64
2022/03/02 13:48:50;;;;;;;32.13;19.38;;;10.30;61.90;;;;;;4920766;29;20047;-64
2022/03/02 13:51:16;;;;;;;28.95;19.83;;;10.40;61.80;;;;;;4917883;29;20453;-64
2022/03/02 13:53:48;;;;;;;30.33;19.40;;;10.50;61.70;;;;;;4933693;29;20578;-64
2022/03/02 13:56:19;;;;;;;33.15;18.30;;;10.50;61.20;;;;;;4933579;29;20047;-64
2022/03/02 13:58:48;;;;;;;28.10;18.27;;;10.60;60.80;;;;;;4923684;29;20163;-64
2022/03/02 14:01:27;;;;;;;29.90;19.15;;;10.80;64.50;;;;;;4916628;29;20055;-63
2022/03/02 14:04:07;;;;;;;26.88;18.58;;;10.90;60.90;;;;;;4914863;29;20040;-63
2022/03/02 14:06:35;;;;;;;26.30;18.27;;;11.00;60.10;;;;;;4930939;29;20400;-63
2022/03/02 14:09:03;;;;;;;32.88;19.52;;;10.90;59.60;;;;;;4933891;29;20048;-64
2022/03/02 14:11:48;;;;;;;27.60;18.15;;;10.90;59.80;;;;;;4933496;29;20047;-64
2022/03/02 14:14:23;;;;;;;27.42;19.33;;;11.00;59.90;;;;;;4898274;29;20052;-63
2022/03/02 14:17:05;;;;;;;27.75;18.63;;;11.00;60.00;;;;;;4920004;29;20047;-62
2022/03/02 14:19:43;;;;;;;31.60;19.45;;;11.10;59.50;;;;;;4920009;29;20118;-62
2022/03/02 14:22:14;;;;;;;29.15;19.40;;;11.10;59.80;;;;;;4916563;29;20083;-63
2022/03/02 14:24:51;;;;;;;29.35;18.98;;;11.10;59.50;;;;;;4916883;29;20504;-63
2022/03/02 14:27:20;;;;;;;27.85;18.20;;;11.10;59.50;;;;;;4934069;29;20044;-64
2022/03/02 14:29:59;;;;;;;28.10;18.35;;;11.10;59.70;;;;;;4929568;29;20051;-64
2022/03/02 14:32:42;;;;;;;29.10;18.88;;;11.20;59.00;;;;;;4917479;29;20132;-64
2022/03/02 14:35:13;;;;;;;29.52;19.63;;;11.10;58.30;;;;;;4927704;29;20044;-65
2022/03/02 14:37:50;;;;;;;22.55;14.93;;;11.10;58.80;;;;;;4914781;29;20048;-64
2022/03/02 14:40:23;;;;;;;27.00;17.80;;;11.20;59.40;;;;;;4898243;29;20428;-64
2022/03/02 14:42:55;;;;;;;25.95;17.17;;;11.20;60.10;;;;;;4926357;29;20047;-64
2022/03/02 14:45:31;;;;;;;29.98;18.67;;;11.30;60.00;;;;;;4933141;29;20134;-64
2022/03/02 14:48:12;;;;;;;24.23;17.90;;;11.40;59.40;;;;;;4932465;29;20063;-63
2022/03/02 14:50:59;;;;;;;29.70;18.20;;;11.50;59.10;;;;;;4932283;29;20051;-64